sensor_id;sensor_type;location;lat;lon;timestamp;P1;durP1;ratioP1;P2;durP2;ratioP2
60726;SDS011;46577;49.004;12.120;2022-10-16T00:00:41;10.00;;;7.60;;
60726;SDS011;46577;49.004;12.120;2022-10-16T00:03:07;14.07;;;7.33;;
60726;SDS011;46577;49.004;12.120;2022-10-16T00:05:37;10.00;;;7.60;;
60726;SDS011;46577;49.004;12.120;2022-10-16T00:08:08;9.80;;;7.70;;
60726;SDS011;46577;49.004;12.120;2022-10-16T00:10:34;8.03;;;6.60;;
60726;SDS011;46577;49.004;12.120;2022-10-16T00:13:00;7.87;;;6.60;;
60726;SDS011;46577;49.004;12.120;2022-10-16T00:15:26;8.97;;;7.33;;
60726;SDS011;46577;49.004;12.120;2022-10-16T00:17:52;9.90;;;6.97;;
60726;SDS011;46577;49.004;12.120;2022-10-16T00:20:17;13.83;;;6.90;;
60726;SDS011;46577;49.004;12.120;2022-10-16T00:22:43;13.43;;;6.80;;
60726;SDS011;46577;49.004;12.120;2022-10-16T00:25:09;9.57;;;7.43;;
60726;SDS011;46577;49.004;12.120;2022-10-16T00:27:34;8.03;;;6.50;;
60726;SDS011;46577;49.004;12.120;2022-10-16T00:30:00;9.57;;;7.10;;
60726;SDS011;46577;49.004;12.120;2022-10-16T00:32:26;9.70;;;7.33;;
60726;SDS011;46577;49.004;12.120;2022-10-16T00:34:52;8.77;;;6.70;;
60726;SDS011;46577;49.004;12.120;2022-10-16T00:37:19;9.23;;;6.33;;
60726;SDS011;46577;49.004;12.120;2022-10-16T00:39:45;8.00;;;6.47;;
60726;SDS011;46577;49.004;12.120;2022-10-16T00:42:15;13.20;;;6.90;;
60726;SDS011;46577;49.004;12.120;2022-10-16T00:47:26;10.13;;;8.10;;
60726;SDS011;46577;49.004;12.120;2022-10-16T00:50:37;8.87;;;7.27;;
60726;SDS011;46577;49.004;12.120;2022-10-16T00:52:50;8.10;;;6.60;;
60726;SDS011;46577;49.004;12.120;2022-10-16T00:55:17;11.90;;;7.63;;
60726;SDS011;46577;49.004;12.120;2022-10-16T00:57:43;7.90;;;6.30;;
60726;SDS011;46577;49.004;12.120;2022-10-16T01:00:11;11.80;;;7.00;;
60726;SDS011;46577;49.004;12.120;2022-10-16T01:02:39;6.83;;;6.13;;
60726;SDS011;46577;49.004;12.120;2022-10-16T01:05:04;9.87;;;6.23;;
60726;SDS011;46577;49.004;12.120;2022-10-16T01:10:30;11.13;;;6.97;;
60726;SDS011;46577;49.004;12.120;2022-10-16T01:13:12;10.20;;;6.87;;
60726;SDS011;46577;49.004;12.120;2022-10-16T01:15:51;9.73;;;6.10;;
60726;SDS011;46577;49.004;12.120;2022-10-16T01:18:39;6.03;;;5.43;;
60726;SDS011;46577;49.004;12.120;2022-10-16T01:21:10;7.60;;;5.43;;
60726;SDS011;46577;49.004;12.120;2022-10-16T01:31:29;8.57;;;5.80;;
60726;SDS011;46577;49.004;12.120;2022-10-16T01:36:47;10.43;;;7.07;;
60726;SDS011;46577;49.004;12.120;2022-10-16T01:39:24;9.93;;;7.03;;
60726;SDS011;46577;49.004;12.120;2022-10-16T01:42:15;8.57;;;6.50;;
60726;SDS011;46577;49.004;12.120;2022-10-16T01:44:41;10.27;;;6.60;;
60726;SDS011;46577;49.004;12.120;2022-10-16T01:47:10;7.77;;;6.00;;
60726;SDS011;46577;49.004;12.120;2022-10-16T01:49:39;13.03;;;5.87;;
60726;SDS011;46577;49.004;12.120;2022-10-16T01:52:06;13.37;;;6.13;;
60726;SDS011;46577;49.004;12.120;2022-10-16T01:54:36;9.57;;;7.53;;
60726;SDS011;46577;49.004;12.120;2022-10-16T01:57:04;16.80;;;6.70;;
60726;SDS011;46577;49.004;12.120;2022-10-16T01:59:33;6.33;;;5.27;;
60726;SDS011;46577;49.004;12.120;2022-10-16T02:02:04;11.93;;;6.73;;
60726;SDS011;46577;49.004;12.120;2022-10-16T02:04:36;8.20;;;6.53;;
60726;SDS011;46577;49.004;12.120;2022-10-16T02:07:05;9.27;;;6.83;;
60726;SDS011;46577;49.004;12.120;2022-10-16T02:09:32;10.47;;;6.37;;
60726;SDS011;46577;49.004;12.120;2022-10-16T02:12:01;10.67;;;7.20;;
60726;SDS011;46577;49.004;12.120;2022-10-16T02:14:33;7.57;;;6.03;;
60726;SDS011;46577;49.004;12.120;2022-10-16T02:17:09;9.33;;;6.33;;
60726;SDS011;46577;49.004;12.120;2022-10-16T02:19:36;11.67;;;6.20;;
60726;SDS011;46577;49.004;12.120;2022-10-16T02:22:04;9.27;;;6.73;;
60726;SDS011;46577;49.004;12.120;2022-10-16T02:24:37;7.80;;;6.07;;
60726;SDS011;46577;49.004;12.120;2022-10-16T02:27:10;7.13;;;6.30;;
60726;SDS011;46577;49.004;12.120;2022-10-16T02:29:39;10.50;;;6.37;;
60726;SDS011;46577;49.004;12.120;2022-10-16T02:32:09;8.87;;;7.10;;
60726;SDS011;46577;49.004;12.120;2022-10-16T02:34:37;11.83;;;6.63;;
60726;SDS011;46577;49.004;12.120;2022-10-16T02:37:05;8.00;;;6.50;;
60726;SDS011;46577;49.004;12.120;2022-10-16T02:39:31;8.20;;;6.40;;
60726;SDS011;46577;49.004;12.120;2022-10-16T02:41:58;9.03;;;7.33;;
60726;SDS011;46577;49.004;12.120;2022-10-16T02:44:24;8.17;;;6.90;;
60726;SDS011;46577;49.004;12.120;2022-10-16T02:46:50;12.00;;;6.77;;
60726;SDS011;46577;49.004;12.120;2022-10-16T02:49:15;9.00;;;6.50;;
60726;SDS011;46577;49.004;12.120;2022-10-16T02:51:41;10.37;;;6.93;;
60726;SDS011;46577;49.004;12.120;2022-10-16T02:54:06;8.43;;;7.10;;
60726;SDS011;46577;49.004;12.120;2022-10-16T02:56:32;10.10;;;7.40;;
60726;SDS011;46577;49.004;12.120;2022-10-16T02:58:58;13.10;;;7.60;;
60726;SDS011;46577;49.004;12.120;2022-10-16T03:01:23;10.30;;;7.17;;
60726;SDS011;46577;49.004;12.120;2022-10-16T03:03:49;16.40;;;7.20;;
60726;SDS011;46577;49.004;12.120;2022-10-16T03:06:15;9.60;;;7.37;;
60726;SDS011;46577;49.004;12.120;2022-10-16T03:08:41;10.60;;;7.40;;
60726;SDS011;46577;49.004;12.120;2022-10-16T03:11:06;12.30;;;6.87;;
60726;SDS011;46577;49.004;12.120;2022-10-16T03:13:32;8.43;;;7.53;;
60726;SDS011;46577;49.004;12.120;2022-10-16T03:15:57;7.60;;;6.17;;
60726;SDS011;46577;49.004;12.120;2022-10-16T03:18:23;14.67;;;7.37;;
60726;SDS011;46577;49.004;12.120;2022-10-16T03:20:49;9.17;;;6.87;;
60726;SDS011;46577;49.004;12.120;2022-10-16T03:23:14;11.80;;;6.97;;
60726;SDS011;46577;49.004;12.120;2022-10-16T03:25:40;19.10;;;8.50;;
60726;SDS011;46577;49.004;12.120;2022-10-16T03:28:05;8.03;;;6.20;;
60726;SDS011;46577;49.004;12.120;2022-10-16T03:30:31;7.90;;;5.90;;
60726;SDS011;46577;49.004;12.120;2022-10-16T03:32:57;7.27;;;5.90;;
60726;SDS011;46577;49.004;12.120;2022-10-16T03:35:23;8.20;;;6.07;;
60726;SDS011;46577;49.004;12.120;2022-10-16T03:37:49;8.17;;;5.90;;
60726;SDS011;46577;49.004;12.120;2022-10-16T03:40:15;9.03;;;6.53;;
60726;SDS011;46577;49.004;12.120;2022-10-16T03:42:42;8.07;;;5.20;;
60726;SDS011;46577;49.004;12.120;2022-10-16T03:45:08;7.27;;;5.77;;
60726;SDS011;46577;49.004;12.120;2022-10-16T03:47:34;7.10;;;5.80;;
60726;SDS011;46577;49.004;12.120;2022-10-16T03:49:59;6.33;;;5.67;;
60726;SDS011;46577;49.004;12.120;2022-10-16T03:52:25;6.13;;;4.90;;
60726;SDS011;46577;49.004;12.120;2022-10-16T03:54:51;6.47;;;5.00;;
60726;SDS011;46577;49.004;12.120;2022-10-16T03:57:17;5.80;;;4.53;;
60726;SDS011;46577;49.004;12.120;2022-10-16T03:59:43;6.30;;;5.10;;
60726;SDS011;46577;49.004;12.120;2022-10-16T04:02:08;7.37;;;5.90;;
60726;SDS011;46577;49.004;12.120;2022-10-16T04:04:34;7.13;;;5.40;;
60726;SDS011;46577;49.004;12.120;2022-10-16T04:07:00;14.07;;;4.70;;
60726;SDS011;46577;49.004;12.120;2022-10-16T04:09:25;5.53;;;4.83;;
60726;SDS011;46577;49.004;12.120;2022-10-16T04:11:51;14.03;;;6.90;;
60726;SDS011;46577;49.004;12.120;2022-10-16T04:14:17;8.30;;;5.23;;
60726;SDS011;46577;49.004;12.120;2022-10-16T04:16:42;7.07;;;5.67;;
60726;SDS011;46577;49.004;12.120;2022-10-16T04:19:08;7.23;;;6.20;;
60726;SDS011;46577;49.004;12.120;2022-10-16T04:21:35;10.17;;;5.87;;
60726;SDS011;46577;49.004;12.120;2022-10-16T04:24:01;8.47;;;6.57;;
60726;SDS011;46577;49.004;12.120;2022-10-16T04:26:26;13.43;;;7.33;;
60726;SDS011;46577;49.004;12.120;2022-10-16T04:28:52;9.37;;;6.43;;
60726;SDS011;46577;49.004;12.120;2022-10-16T04:31:18;13.20;;;6.87;;
60726;SDS011;46577;49.004;12.120;2022-10-16T04:33:44;8.70;;;6.97;;
60726;SDS011;46577;49.004;12.120;2022-10-16T04:36:10;11.80;;;8.30;;
60726;SDS011;46577;49.004;12.120;2022-10-16T04:38:35;11.83;;;7.87;;
60726;SDS011;46577;49.004;12.120;2022-10-16T04:41:02;15.57;;;7.30;;
60726;SDS011;46577;49.004;12.120;2022-10-16T04:43:28;13.27;;;8.00;;
60726;SDS011;46577;49.004;12.120;2022-10-16T04:45:54;13.93;;;7.50;;
60726;SDS011;46577;49.004;12.120;2022-10-16T04:48:21;9.93;;;7.20;;
60726;SDS011;46577;49.004;12.120;2022-10-16T04:50:47;11.87;;;7.60;;
60726;SDS011;46577;49.004;12.120;2022-10-16T04:53:12;9.83;;;6.50;;
60726;SDS011;46577;49.004;12.120;2022-10-16T04:55:38;40.10;;;6.80;;
60726;SDS011;46577;49.004;12.120;2022-10-16T04:58:04;9.93;;;6.10;;
60726;SDS011;46577;49.004;12.120;2022-10-16T05:00:30;9.83;;;6.77;;
60726;SDS011;46577;49.004;12.120;2022-10-16T05:02:56;8.77;;;6.30;;
60726;SDS011;46577;49.004;12.120;2022-10-16T05:05:24;10.63;;;6.10;;
60726;SDS011;46577;49.004;12.120;2022-10-16T05:07:50;12.03;;;7.03;;
60726;SDS011;46577;49.004;12.120;2022-10-16T05:10:15;18.43;;;9.30;;
60726;SDS011;46577;49.004;12.120;2022-10-16T05:12:41;31.27;;;14.67;;
60726;SDS011;46577;49.004;12.120;2022-10-16T05:15:07;38.37;;;17.40;;
60726;SDS011;46577;49.004;12.120;2022-10-16T05:17:33;30.93;;;13.90;;
60726;SDS011;46577;49.004;12.120;2022-10-16T05:19:59;21.90;;;9.27;;
60726;SDS011;46577;49.004;12.120;2022-10-16T05:22:24;14.27;;;8.47;;
60726;SDS011;46577;49.004;12.120;2022-10-16T05:24:50;10.33;;;8.00;;
60726;SDS011;46577;49.004;12.120;2022-10-16T05:27:16;8.53;;;7.27;;
60726;SDS011;46577;49.004;12.120;2022-10-16T05:29:47;18.00;;;6.97;;
60726;SDS011;46577;49.004;12.120;2022-10-16T05:32:14;9.20;;;6.60;;
60726;SDS011;46577;49.004;12.120;2022-10-16T05:34:40;11.37;;;7.43;;
60726;SDS011;46577;49.004;12.120;2022-10-16T05:37:06;8.63;;;6.77;;
60726;SDS011;46577;49.004;12.120;2022-10-16T05:39:32;17.53;;;6.80;;
60726;SDS011;46577;49.004;12.120;2022-10-16T05:41:58;8.80;;;6.70;;
60726;SDS011;46577;49.004;12.120;2022-10-16T05:44:23;10.17;;;6.50;;
60726;SDS011;46577;49.004;12.120;2022-10-16T05:46:49;11.87;;;7.10;;
60726;SDS011;46577;49.004;12.120;2022-10-16T05:49:15;8.10;;;6.13;;
60726;SDS011;46577;49.004;12.120;2022-10-16T05:51:40;9.33;;;5.87;;
60726;SDS011;46577;49.004;12.120;2022-10-16T05:54:06;9.60;;;6.50;;
60726;SDS011;46577;49.004;12.120;2022-10-16T05:56:32;7.47;;;6.13;;
60726;SDS011;46577;49.004;12.120;2022-10-16T05:58:58;8.27;;;6.40;;
60726;SDS011;46577;49.004;12.120;2022-10-16T06:01:24;9.70;;;6.93;;
60726;SDS011;46577;49.004;12.120;2022-10-16T06:03:52;7.00;;;5.80;;
60726;SDS011;46577;49.004;12.120;2022-10-16T06:06:19;5.23;;;4.73;;
60726;SDS011;46577;49.004;12.120;2022-10-16T06:08:46;13.90;;;6.97;;
60726;SDS011;46577;49.004;12.120;2022-10-16T06:11:17;25.87;;;6.60;;
60726;SDS011;46577;49.004;12.120;2022-10-16T06:13:50;8.60;;;5.83;;
60726;SDS011;46577;49.004;12.120;2022-10-16T06:16:17;6.40;;;5.67;;
60726;SDS011;46577;49.004;12.120;2022-10-16T06:18:43;8.80;;;5.73;;
60726;SDS011;46577;49.004;12.120;2022-10-16T06:21:09;12.70;;;6.53;;
60726;SDS011;46577;49.004;12.120;2022-10-16T06:23:37;7.53;;;5.73;;
60726;SDS011;46577;49.004;12.120;2022-10-16T06:26:06;10.87;;;6.80;;
60726;SDS011;46577;49.004;12.120;2022-10-16T06:28:36;10.13;;;7.23;;
60726;SDS011;46577;49.004;12.120;2022-10-16T06:31:03;8.07;;;6.50;;
60726;SDS011;46577;49.004;12.120;2022-10-16T06:33:30;7.13;;;5.90;;
60726;SDS011;46577;49.004;12.120;2022-10-16T06:36:02;9.70;;;5.80;;
60726;SDS011;46577;49.004;12.120;2022-10-16T06:38:33;7.87;;;5.43;;
60726;SDS011;46577;49.004;12.120;2022-10-16T06:40:59;8.27;;;5.87;;
60726;SDS011;46577;49.004;12.120;2022-10-16T06:43:25;5.20;;;4.40;;
60726;SDS011;46577;49.004;12.120;2022-10-16T06:45:52;7.93;;;5.53;;
60726;SDS011;46577;49.004;12.120;2022-10-16T06:48:19;6.37;;;4.80;;
60726;SDS011;46577;49.004;12.120;2022-10-16T06:50:54;7.77;;;4.93;;
60726;SDS011;46577;49.004;12.120;2022-10-16T06:53:24;5.13;;;4.23;;
60726;SDS011;46577;49.004;12.120;2022-10-16T06:55:50;12.43;;;4.13;;
60726;SDS011;46577;49.004;12.120;2022-10-16T06:58:16;4.87;;;4.30;;
60726;SDS011;46577;49.004;12.120;2022-10-16T07:00:41;9.10;;;4.10;;
60726;SDS011;46577;49.004;12.120;2022-10-16T07:03:07;5.30;;;4.40;;
60726;SDS011;46577;49.004;12.120;2022-10-16T07:05:37;5.07;;;4.57;;
60726;SDS011;46577;49.004;12.120;2022-10-16T07:08:06;6.30;;;4.10;;
60726;SDS011;46577;49.004;12.120;2022-10-16T07:10:32;5.37;;;4.00;;
60726;SDS011;46577;49.004;12.120;2022-10-16T07:12:58;4.90;;;3.97;;
60726;SDS011;46577;49.004;12.120;2022-10-16T07:15:24;5.67;;;4.50;;
60726;SDS011;46577;49.004;12.120;2022-10-16T07:17:50;5.23;;;4.13;;
60726;SDS011;46577;49.004;12.120;2022-10-16T07:20:16;4.63;;;4.13;;
60726;SDS011;46577;49.004;12.120;2022-10-16T07:22:41;4.27;;;3.87;;
60726;SDS011;46577;49.004;12.120;2022-10-16T07:25:07;4.67;;;3.20;;
60726;SDS011;46577;49.004;12.120;2022-10-16T07:27:33;6.60;;;6.00;;
60726;SDS011;46577;49.004;12.120;2022-10-16T07:29:59;3.80;;;3.40;;
60726;SDS011;46577;49.004;12.120;2022-10-16T07:32:25;5.80;;;4.77;;
60726;SDS011;46577;49.004;12.120;2022-10-16T07:34:51;5.77;;;4.40;;
60726;SDS011;46577;49.004;12.120;2022-10-16T07:37:17;5.20;;;3.73;;
60726;SDS011;46577;49.004;12.120;2022-10-16T07:39:42;4.37;;;3.13;;
60726;SDS011;46577;49.004;12.120;2022-10-16T07:42:08;3.90;;;3.47;;
60726;SDS011;46577;49.004;12.120;2022-10-16T07:44:34;4.20;;;3.80;;
60726;SDS011;46577;49.004;12.120;2022-10-16T07:46:59;3.70;;;3.40;;
60726;SDS011;46577;49.004;12.120;2022-10-16T07:49:25;2.73;;;2.50;;
60726;SDS011;46577;49.004;12.120;2022-10-16T07:51:50;5.03;;;2.87;;
60726;SDS011;46577;49.004;12.120;2022-10-16T07:54:16;4.70;;;2.80;;
60726;SDS011;46577;49.004;12.120;2022-10-16T07:56:42;3.13;;;2.83;;
60726;SDS011;46577;49.004;12.120;2022-10-16T07:59:07;3.33;;;2.70;;
60726;SDS011;46577;49.004;12.120;2022-10-16T08:01:33;3.70;;;2.60;;
60726;SDS011;46577;49.004;12.120;2022-10-16T08:03:58;5.57;;;3.60;;
60726;SDS011;46577;49.004;12.120;2022-10-16T08:06:24;3.13;;;2.20;;
60726;SDS011;46577;49.004;12.120;2022-10-16T08:08:50;2.50;;;2.20;;
60726;SDS011;46577;49.004;12.120;2022-10-16T08:11:15;4.40;;;2.00;;
60726;SDS011;46577;49.004;12.120;2022-10-16T08:13:41;3.60;;;2.03;;
60726;SDS011;46577;49.004;12.120;2022-10-16T08:16:07;2.13;;;1.80;;
60726;SDS011;46577;49.004;12.120;2022-10-16T08:18:37;2.37;;;2.00;;
60726;SDS011;46577;49.004;12.120;2022-10-16T08:21:05;5.23;;;2.27;;
60726;SDS011;46577;49.004;12.120;2022-10-16T08:23:31;2.17;;;2.00;;
60726;SDS011;46577;49.004;12.120;2022-10-16T08:26:01;6.60;;;1.53;;
60726;SDS011;46577;49.004;12.120;2022-10-16T08:28:29;1.40;;;1.30;;
60726;SDS011;46577;49.004;12.120;2022-10-16T08:30:54;5.50;;;1.43;;
60726;SDS011;46577;49.004;12.120;2022-10-16T08:33:21;2.83;;;2.10;;
60726;SDS011;46577;49.004;12.120;2022-10-16T08:35:51;2.30;;;1.53;;
60726;SDS011;46577;49.004;12.120;2022-10-16T08:38:18;1.20;;;1.10;;
60726;SDS011;46577;49.004;12.120;2022-10-16T08:40:44;2.90;;;1.70;;
60726;SDS011;46577;49.004;12.120;2022-10-16T08:43:19;1.70;;;1.60;;
60726;SDS011;46577;49.004;12.120;2022-10-16T08:50:55;4.70;;;2.13;;
60726;SDS011;46577;49.004;12.120;2022-10-16T08:53:24;3.40;;;2.20;;
60726;SDS011;46577;49.004;12.120;2022-10-16T08:55:54;2.13;;;1.97;;
60726;SDS011;46577;49.004;12.120;2022-10-16T08:58:21;1.87;;;1.77;;
60726;SDS011;46577;49.004;12.120;2022-10-16T09:00:54;2.97;;;2.23;;
60726;SDS011;46577;49.004;12.120;2022-10-16T09:03:41;2.57;;;2.37;;
60726;SDS011;46577;49.004;12.120;2022-10-16T09:06:30;2.43;;;2.00;;
60726;SDS011;46577;49.004;12.120;2022-10-16T09:22:45;2.00;;;1.87;;
60726;SDS011;46577;49.004;12.120;2022-10-16T09:25:13;2.17;;;1.40;;
60726;SDS011;46577;49.004;12.120;2022-10-16T09:27:40;1.70;;;1.60;;
60726;SDS011;46577;49.004;12.120;2022-10-16T09:30:10;1.67;;;1.27;;
60726;SDS011;46577;49.004;12.120;2022-10-16T09:32:38;3.28;;;1.52;;
60726;SDS011;46577;49.004;12.120;2022-10-16T09:35:09;2.85;;;2.63;;
60726;SDS011;46577;49.004;12.120;2022-10-16T09:37:38;1.75;;;1.65;;
60726;SDS011;46577;49.004;12.120;2022-10-16T09:40:07;1.60;;;1.50;;
60726;SDS011;46577;49.004;12.120;2022-10-16T09:42:37;2.87;;;1.40;;
60726;SDS011;46577;49.004;12.120;2022-10-16T09:45:03;1.40;;;1.30;;
60726;SDS011;46577;49.004;12.120;2022-10-16T09:47:30;1.25;;;1.15;;
60726;SDS011;46577;49.004;12.120;2022-10-16T09:50:01;1.20;;;1.10;;
60726;SDS011;46577;49.004;12.120;2022-10-16T09:52:31;0.93;;;0.93;;
60726;SDS011;46577;49.004;12.120;2022-10-16T09:54:58;1.10;;;1.00;;
60726;SDS011;46577;49.004;12.120;2022-10-16T09:57:26;1.38;;;1.27;;
60726;SDS011;46577;49.004;12.120;2022-10-16T09:59:53;1.20;;;1.10;;
60726;SDS011;46577;49.004;12.120;2022-10-16T10:02:30;1.30;;;1.15;;
60726;SDS011;46577;49.004;12.120;2022-10-16T10:04:58;1.67;;;1.02;;
60726;SDS011;46577;49.004;12.120;2022-10-16T10:07:25;1.13;;;1.02;;
60726;SDS011;46577;49.004;12.120;2022-10-16T10:09:53;4.05;;;1.38;;
60726;SDS011;46577;49.004;12.120;2022-10-16T10:14:51;1.05;;;0.95;;
60726;SDS011;46577;49.004;12.120;2022-10-16T10:17:25;1.25;;;1.15;;
60726;SDS011;46577;49.004;12.120;2022-10-16T10:22:30;1.10;;;1.00;;
60726;SDS011;46577;49.004;12.120;2022-10-16T10:27:55;1.30;;;1.20;;
60726;SDS011;46577;49.004;12.120;2022-10-16T10:36:05;1.97;;;1.70;;
60726;SDS011;46577;49.004;12.120;2022-10-16T10:39:03;2.07;;;1.80;;
60726;SDS011;46577;49.004;12.120;2022-10-16T11:01:24;1.70;;;1.60;;
60726;SDS011;46577;49.004;12.120;2022-10-16T11:04:04;2.50;;;1.97;;
60726;SDS011;46577;49.004;12.120;2022-10-16T11:06:55;2.53;;;2.17;;
60726;SDS011;46577;49.004;12.120;2022-10-16T11:09:39;2.27;;;2.07;;
60726;SDS011;46577;49.004;12.120;2022-10-16T11:12:12;3.47;;;1.63;;
60726;SDS011;46577;49.004;12.120;2022-10-16T11:17:52;2.10;;;1.60;;
60726;SDS011;46577;49.004;12.120;2022-10-16T11:20:30;2.17;;;1.97;;
60726;SDS011;46577;49.004;12.120;2022-10-16T11:25:35;3.53;;;1.97;;
60726;SDS011;46577;49.004;12.120;2022-10-16T11:28:11;2.23;;;2.00;;
60726;SDS011;46577;49.004;12.120;2022-10-16T11:30:59;1.63;;;1.53;;
60726;SDS011;46577;49.004;12.120;2022-10-16T11:33:37;3.33;;;1.30;;
60726;SDS011;46577;49.004;12.120;2022-10-16T11:41:29;1.50;;;1.40;;
60726;SDS011;46577;49.004;12.120;2022-10-16T11:49:43;1.00;;;0.90;;
60726;SDS011;46577;49.004;12.120;2022-10-16T11:57:23;0.70;;;0.70;;
60726;SDS011;46577;49.004;12.120;2022-10-16T11:59:54;2.10;;;1.30;;
60726;SDS011;46577;49.004;12.120;2022-10-16T12:08:01;0.90;;;0.90;;
60726;SDS011;46577;49.004;12.120;2022-10-16T12:10:36;1.10;;;1.00;;
60726;SDS011;46577;49.004;12.120;2022-10-16T12:16:04;2.55;;;1.05;;
60726;SDS011;46577;49.004;12.120;2022-10-16T12:18:39;2.55;;;0.90;;
60726;SDS011;46577;49.004;12.120;2022-10-16T12:21:06;1.90;;;0.90;;
60726;SDS011;46577;49.004;12.120;2022-10-16T12:23:33;0.90;;;0.90;;
60726;SDS011;46577;49.004;12.120;2022-10-16T12:26:03;2.45;;;0.90;;
60726;SDS011;46577;49.004;12.120;2022-10-16T12:28:30;1.10;;;0.95;;
60726;SDS011;46577;49.004;12.120;2022-10-16T12:31:05;1.42;;;1.05;;
60726;SDS011;46577;49.004;12.120;2022-10-16T12:36:07;1.00;;;0.90;;
60726;SDS011;46577;49.004;12.120;2022-10-16T12:38:51;1.67;;;1.58;;
60726;SDS011;46577;49.004;12.120;2022-10-16T12:41:29;1.23;;;1.13;;
60726;SDS011;46577;49.004;12.120;2022-10-16T12:43:55;1.27;;;1.17;;
60726;SDS011;46577;49.004;12.120;2022-10-16T12:49:04;1.60;;;1.47;;
60726;SDS011;46577;49.004;12.120;2022-10-16T12:51:39;7.33;;;1.33;;
60726;SDS011;46577;49.004;12.120;2022-10-16T12:54:16;2.13;;;1.50;;
60726;SDS011;46577;49.004;12.120;2022-10-16T12:59:24;2.07;;;1.77;;
60726;SDS011;46577;49.004;12.120;2022-10-16T13:10:47;3.73;;;3.43;;
60726;SDS011;46577;49.004;12.120;2022-10-16T13:27:07;3.17;;;2.07;;
60726;SDS011;46577;49.004;12.120;2022-10-16T13:29:43;2.70;;;2.03;;
60726;SDS011;46577;49.004;12.120;2022-10-16T13:32:10;2.60;;;1.77;;
60726;SDS011;46577;49.004;12.120;2022-10-16T13:34:44;2.80;;;1.70;;
60726;SDS011;46577;49.004;12.120;2022-10-16T13:37:18;2.17;;;1.97;;
60726;SDS011;46577;49.004;12.120;2022-10-16T13:39:46;1.90;;;1.70;;
60726;SDS011;46577;49.004;12.120;2022-10-16T13:42:18;1.97;;;1.77;;
60726;SDS011;46577;49.004;12.120;2022-10-16T13:44:47;4.60;;;2.70;;
60726;SDS011;46577;49.004;12.120;2022-10-16T13:47:19;1.70;;;1.60;;
60726;SDS011;46577;49.004;12.120;2022-10-16T13:49:59;2.50;;;2.20;;
60726;SDS011;46577;49.004;12.120;2022-10-16T13:52:27;2.23;;;2.00;;
60726;SDS011;46577;49.004;12.120;2022-10-16T13:54:53;1.80;;;1.70;;
60726;SDS011;46577;49.004;12.120;2022-10-16T13:57:18;2.07;;;1.83;;
60726;SDS011;46577;49.004;12.120;2022-10-16T13:59:48;4.20;;;2.07;;
60726;SDS011;46577;49.004;12.120;2022-10-16T14:04:56;3.60;;;2.13;;
60726;SDS011;46577;49.004;12.120;2022-10-16T14:07:26;2.60;;;1.77;;
60726;SDS011;46577;49.004;12.120;2022-10-16T14:09:56;2.80;;;2.00;;
60726;SDS011;46577;49.004;12.120;2022-10-16T14:12:29;1.70;;;1.60;;
60726;SDS011;46577;49.004;12.120;2022-10-16T14:14:55;3.00;;;2.07;;
60726;SDS011;46577;49.004;12.120;2022-10-16T14:17:24;3.10;;;1.90;;
60726;SDS011;46577;49.004;12.120;2022-10-16T14:19:53;2.83;;;2.30;;
60726;SDS011;46577;49.004;12.120;2022-10-16T14:24:55;2.13;;;1.93;;
60726;SDS011;46577;49.004;12.120;2022-10-16T14:27:33;3.33;;;1.80;;
60726;SDS011;46577;49.004;12.120;2022-10-16T14:30:08;3.43;;;2.27;;
60726;SDS011;46577;49.004;12.120;2022-10-16T14:32:52;2.37;;;2.17;;
60726;SDS011;46577;49.004;12.120;2022-10-16T14:37:51;7.30;;;2.33;;
60726;SDS011;46577;49.004;12.120;2022-10-16T14:40:19;4.03;;;2.67;;
60726;SDS011;46577;49.004;12.120;2022-10-16T14:42:47;2.10;;;1.90;;
60726;SDS011;46577;49.004;12.120;2022-10-16T14:45:15;2.07;;;1.80;;
60726;SDS011;46577;49.004;12.120;2022-10-16T14:47:50;3.83;;;2.23;;
60726;SDS011;46577;49.004;12.120;2022-10-16T14:50:18;5.10;;;2.27;;
60726;SDS011;46577;49.004;12.120;2022-10-16T14:52:44;2.00;;;1.90;;
60726;SDS011;46577;49.004;12.120;2022-10-16T14:55:10;2.87;;;2.37;;
60726;SDS011;46577;49.004;12.120;2022-10-16T14:57:36;3.70;;;2.37;;
60726;SDS011;46577;49.004;12.120;2022-10-16T15:00:06;3.67;;;2.10;;
60726;SDS011;46577;49.004;12.120;2022-10-16T15:02:42;3.53;;;2.23;;
60726;SDS011;46577;49.004;12.120;2022-10-16T15:05:21;8.60;;;2.90;;
60726;SDS011;46577;49.004;12.120;2022-10-16T15:07:49;4.53;;;2.90;;
60726;SDS011;46577;49.004;12.120;2022-10-16T15:10:16;3.20;;;2.40;;
60726;SDS011;46577;49.004;12.120;2022-10-16T15:12:42;3.43;;;2.53;;
60726;SDS011;46577;49.004;12.120;2022-10-16T15:18:03;4.50;;;3.03;;
60726;SDS011;46577;49.004;12.120;2022-10-16T15:20:33;6.80;;;2.83;;
60726;SDS011;46577;49.004;12.120;2022-10-16T15:23:04;2.63;;;2.40;;
60726;SDS011;46577;49.004;12.120;2022-10-16T15:28:01;4.27;;;3.23;;
60726;SDS011;46577;49.004;12.120;2022-10-16T15:30:28;6.40;;;3.00;;
60726;SDS011;46577;49.004;12.120;2022-10-16T15:32:54;4.20;;;3.17;;
60726;SDS011;46577;49.004;12.120;2022-10-16T15:35:19;3.40;;;3.10;;
60726;SDS011;46577;49.004;12.120;2022-10-16T15:37:46;5.30;;;2.93;;
60726;SDS011;46577;49.004;12.120;2022-10-16T15:40:13;3.70;;;3.13;;
60726;SDS011;46577;49.004;12.120;2022-10-16T15:42:39;5.30;;;3.33;;
60726;SDS011;46577;49.004;12.120;2022-10-16T15:45:04;7.80;;;3.40;;
60726;SDS011;46577;49.004;12.120;2022-10-16T15:47:31;3.53;;;3.20;;
60726;SDS011;46577;49.004;12.120;2022-10-16T15:49:57;8.47;;;3.40;;
60726;SDS011;46577;49.004;12.120;2022-10-16T15:52:23;4.93;;;3.73;;
60726;SDS011;46577;49.004;12.120;2022-10-16T15:54:48;4.00;;;3.60;;
60726;SDS011;46577;49.004;12.120;2022-10-16T15:57:14;6.30;;;3.37;;
60726;SDS011;46577;49.004;12.120;2022-10-16T15:59:40;8.70;;;4.17;;
60726;SDS011;46577;49.004;12.120;2022-10-16T16:02:05;6.27;;;3.90;;
60726;SDS011;46577;49.004;12.120;2022-10-16T16:04:32;9.50;;;4.77;;
60726;SDS011;46577;49.004;12.120;2022-10-16T16:06:58;6.30;;;3.63;;
60726;SDS011;46577;49.004;12.120;2022-10-16T16:09:24;7.23;;;4.30;;
60726;SDS011;46577;49.004;12.120;2022-10-16T16:11:49;9.17;;;5.50;;
60726;SDS011;46577;49.004;12.120;2022-10-16T16:14:17;5.37;;;4.30;;
60726;SDS011;46577;49.004;12.120;2022-10-16T16:16:42;5.03;;;3.90;;
60726;SDS011;46577;49.004;12.120;2022-10-16T16:19:08;5.77;;;4.50;;
60726;SDS011;46577;49.004;12.120;2022-10-16T16:21:34;6.60;;;5.00;;
60726;SDS011;46577;49.004;12.120;2022-10-16T16:24:00;6.10;;;4.60;;
60726;SDS011;46577;49.004;12.120;2022-10-16T16:26:27;9.37;;;5.30;;
60726;SDS011;46577;49.004;12.120;2022-10-16T16:28:57;6.83;;;4.80;;
60726;SDS011;46577;49.004;12.120;2022-10-16T16:31:23;7.53;;;4.90;;
60726;SDS011;46577;49.004;12.120;2022-10-16T16:33:50;7.37;;;4.83;;
60726;SDS011;46577;49.004;12.120;2022-10-16T16:36:16;5.97;;;4.60;;
60726;SDS011;46577;49.004;12.120;2022-10-16T16:38:43;8.47;;;6.03;;
60726;SDS011;46577;49.004;12.120;2022-10-16T16:41:16;7.20;;;5.50;;
60726;SDS011;46577;49.004;12.120;2022-10-16T16:43:43;9.43;;;5.20;;
60726;SDS011;46577;49.004;12.120;2022-10-16T16:46:09;10.93;;;6.70;;
60726;SDS011;46577;49.004;12.120;2022-10-16T16:48:36;7.17;;;5.20;;
60726;SDS011;46577;49.004;12.120;2022-10-16T16:51:04;10.83;;;5.57;;
60726;SDS011;46577;49.004;12.120;2022-10-16T16:53:30;10.73;;;5.03;;
60726;SDS011;46577;49.004;12.120;2022-10-16T16:56:00;7.07;;;5.00;;
60726;SDS011;46577;49.004;12.120;2022-10-16T16:58:29;10.33;;;5.47;;
60726;SDS011;46577;49.004;12.120;2022-10-16T17:00:56;5.87;;;4.73;;